sensor_id;sensor_type;location;lat;lon;timestamp;P1;durP1;ratioP1;P2;durP2;ratioP2
8596;SDS011;4336;49.310;8.646;2022-09-30T00:01:06;9.43;;;7.20;;
8596;SDS011;4336;49.310;8.646;2022-09-30T00:03:32;7.27;;;6.57;;
8596;SDS011;4336;49.310;8.646;2022-09-30T00:06:02;8.23;;;7.03;;
8596;SDS011;4336;49.310;8.646;2022-09-30T00:08:28;7.90;;;7.10;;
8596;SDS011;4336;49.310;8.646;2022-09-30T00:11:08;7.83;;;7.03;;
8596;SDS011;4336;49.310;8.646;2022-09-30T00:13:35;7.97;;;7.17;;
8596;SDS011;4336;49.310;8.646;2022-09-30T00:16:02;7.57;;;6.87;;
8596;SDS011;4336;49.310;8.646;2022-09-30T00:18:28;9.40;;;8.40;;
8596;SDS011;4336;49.310;8.646;2022-09-30T00:20:54;7.83;;;7.03;;
8596;SDS011;4336;49.310;8.646;2022-09-30T00:23:21;8.03;;;6.47;;
8596;SDS011;4336;49.310;8.646;2022-09-30T00:25:47;24.63;;;7.90;;
8596;SDS011;4336;49.310;8.646;2022-09-30T00:28:14;9.30;;;6.43;;
8596;SDS011;4336;49.310;8.646;2022-09-30T00:30:40;9.50;;;7.13;;
8596;SDS011;4336;49.310;8.646;2022-09-30T00:33:08;12.20;;;7.47;;
8596;SDS011;4336;49.310;8.646;2022-09-30T00:35:35;8.60;;;7.70;;
8596;SDS011;4336;49.310;8.646;2022-09-30T00:38:01;9.50;;;6.90;;
8596;SDS011;4336;49.310;8.646;2022-09-30T00:40:27;8.00;;;7.17;;
8596;SDS011;4336;49.310;8.646;2022-09-30T00:42:54;9.77;;;7.80;;
8596;SDS011;4336;49.310;8.646;2022-09-30T00:45:21;8.27;;;7.50;;
8596;SDS011;4336;49.310;8.646;2022-09-30T00:48:07;7.70;;;6.90;;
8596;SDS011;4336;49.310;8.646;2022-09-30T00:50:36;19.60;;;10.53;;
8596;SDS011;4336;49.310;8.646;2022-09-30T00:53:05;9.40;;;6.43;;
8596;SDS011;4336;49.310;8.646;2022-09-30T00:58:19;7.83;;;6.97;;
8596;SDS011;4336;49.310;8.646;2022-09-30T01:00:47;8.20;;;7.27;;
8596;SDS011;4336;49.310;8.646;2022-09-30T01:03:15;7.93;;;6.67;;
8596;SDS011;4336;49.310;8.646;2022-09-30T01:05:42;10.30;;;7.47;;
8596;SDS011;4336;49.310;8.646;2022-09-30T01:08:08;9.77;;;7.07;;
8596;SDS011;4336;49.310;8.646;2022-09-30T01:10:35;8.33;;;7.50;;
8596;SDS011;4336;49.310;8.646;2022-09-30T01:13:01;7.70;;;6.23;;
8596;SDS011;4336;49.310;8.646;2022-09-30T01:15:50;8.60;;;6.83;;
8596;SDS011;4336;49.310;8.646;2022-09-30T01:18:25;7.63;;;6.83;;
8596;SDS011;4336;49.310;8.646;2022-09-30T01:33:44;8.37;;;6.80;;
8596;SDS011;4336;49.310;8.646;2022-09-30T01:39:02;7.83;;;6.97;;
8596;SDS011;4336;49.310;8.646;2022-09-30T01:44:22;7.80;;;7.03;;
8596;SDS011;4336;49.310;8.646;2022-09-30T01:46:58;9.03;;;7.50;;
8596;SDS011;4336;49.310;8.646;2022-09-30T01:49:59;10.03;;;7.50;;
8596;SDS011;4336;49.310;8.646;2022-09-30T01:52:20;10.00;;;6.83;;
8596;SDS011;4336;49.310;8.646;2022-09-30T01:57:27;7.47;;;6.30;;
8596;SDS011;4336;49.310;8.646;2022-09-30T02:00:06;7.90;;;7.17;;
8596;SDS011;4336;49.310;8.646;2022-09-30T02:02:36;8.97;;;7.77;;
8596;SDS011;4336;49.310;8.646;2022-09-30T02:05:10;9.37;;;7.10;;
8596;SDS011;4336;49.310;8.646;2022-09-30T02:07:40;7.60;;;6.90;;
8596;SDS011;4336;49.310;8.646;2022-09-30T02:10:12;8.70;;;7.67;;
8596;SDS011;4336;49.310;8.646;2022-09-30T02:12:41;9.13;;;7.40;;
8596;SDS011;4336;49.310;8.646;2022-09-30T02:15:13;8.60;;;6.80;;
8596;SDS011;4336;49.310;8.646;2022-09-30T02:17:46;8.57;;;6.87;;
8596;SDS011;4336;49.310;8.646;2022-09-30T02:22:48;7.60;;;6.80;;
8596;SDS011;4336;49.310;8.646;2022-09-30T02:25:25;8.00;;;7.23;;
8596;SDS011;4336;49.310;8.646;2022-09-30T02:27:53;8.70;;;6.80;;
8596;SDS011;4336;49.310;8.646;2022-09-30T02:30:20;10.23;;;7.43;;
8596;SDS011;4336;49.310;8.646;2022-09-30T02:32:58;7.63;;;6.63;;
8596;SDS011;4336;49.310;8.646;2022-09-30T02:35:27;8.13;;;7.07;;
8596;SDS011;4336;49.310;8.646;2022-09-30T02:37:56;9.90;;;6.43;;
8596;SDS011;4336;49.310;8.646;2022-09-30T02:40:26;8.80;;;6.57;;
8596;SDS011;4336;49.310;8.646;2022-09-30T02:42:54;7.57;;;6.87;;
8596;SDS011;4336;49.310;8.646;2022-09-30T02:45:21;6.83;;;6.23;;
8596;SDS011;4336;49.310;8.646;2022-09-30T02:47:51;7.20;;;6.60;;
8596;SDS011;4336;49.310;8.646;2022-09-30T02:50:30;7.33;;;6.63;;
8596;SDS011;4336;49.310;8.646;2022-09-30T02:55:29;6.87;;;6.17;;
8596;SDS011;4336;49.310;8.646;2022-09-30T02:57:59;8.67;;;6.57;;
8596;SDS011;4336;49.310;8.646;2022-09-30T03:00:27;8.77;;;6.47;;
8596;SDS011;4336;49.310;8.646;2022-09-30T03:02:55;7.10;;;6.40;;
8596;SDS011;4336;49.310;8.646;2022-09-30T03:05:23;7.67;;;6.93;;
8596;SDS011;4336;49.310;8.646;2022-09-30T03:07:49;7.43;;;6.73;;
8596;SDS011;4336;49.310;8.646;2022-09-30T03:10:16;7.23;;;6.53;;
8596;SDS011;4336;49.310;8.646;2022-09-30T03:12:52;7.00;;;6.33;;
8596;SDS011;4336;49.310;8.646;2022-09-30T03:15:24;7.20;;;6.60;;
8596;SDS011;4336;49.310;8.646;2022-09-30T03:18:02;8.27;;;6.43;;
8596;SDS011;4336;49.310;8.646;2022-09-30T03:20:43;6.47;;;5.60;;
8596;SDS011;4336;49.310;8.646;2022-09-30T03:23:30;8.93;;;6.80;;
8596;SDS011;4336;49.310;8.646;2022-09-30T03:28:34;8.40;;;6.30;;
8596;SDS011;4336;49.310;8.646;2022-09-30T03:35:58;7.17;;;6.57;;
8596;SDS011;4336;49.310;8.646;2022-09-30T03:43:41;9.13;;;6.63;;
8596;SDS011;4336;49.310;8.646;2022-09-30T03:48:34;7.30;;;6.53;;
8596;SDS011;4336;49.310;8.646;2022-09-30T03:51:01;8.43;;;6.93;;
8596;SDS011;4336;49.310;8.646;2022-09-30T03:53:28;7.63;;;6.87;;
8596;SDS011;4336;49.310;8.646;2022-09-30T03:55:54;6.97;;;6.27;;
8596;SDS011;4336;49.310;8.646;2022-09-30T03:58:21;7.83;;;6.53;;
8596;SDS011;4336;49.310;8.646;2022-09-30T04:00:48;7.90;;;6.67;;
8596;SDS011;4336;49.310;8.646;2022-09-30T04:03:15;7.83;;;7.13;;
8596;SDS011;4336;49.310;8.646;2022-09-30T04:05:41;8.63;;;7.83;;
8596;SDS011;4336;49.310;8.646;2022-09-30T04:08:08;14.77;;;6.63;;
8596;SDS011;4336;49.310;8.646;2022-09-30T04:10:34;8.60;;;6.77;;
8596;SDS011;4336;49.310;8.646;2022-09-30T04:13:00;8.27;;;6.93;;
8596;SDS011;4336;49.310;8.646;2022-09-30T04:15:26;7.53;;;6.90;;
8596;SDS011;4336;49.310;8.646;2022-09-30T04:17:52;6.80;;;6.20;;
8596;SDS011;4336;49.310;8.646;2022-09-30T04:20:18;6.80;;;6.20;;
8596;SDS011;4336;49.310;8.646;2022-09-30T04:22:44;7.33;;;6.30;;
8596;SDS011;4336;49.310;8.646;2022-09-30T04:25:11;8.47;;;6.47;;
8596;SDS011;4336;49.310;8.646;2022-09-30T04:27:37;7.07;;;6.47;;
8596;SDS011;4336;49.310;8.646;2022-09-30T04:30:04;6.97;;;6.37;;
8596;SDS011;4336;49.310;8.646;2022-09-30T04:32:30;9.63;;;6.23;;
8596;SDS011;4336;49.310;8.646;2022-09-30T04:34:56;7.20;;;6.50;;
8596;SDS011;4336;49.310;8.646;2022-09-30T04:37:22;7.57;;;6.87;;
8596;SDS011;4336;49.310;8.646;2022-09-30T04:39:48;7.30;;;6.50;;
8596;SDS011;4336;49.310;8.646;2022-09-30T04:42:15;7.47;;;6.23;;
8596;SDS011;4336;49.310;8.646;2022-09-30T04:44:42;7.03;;;6.43;;
8596;SDS011;4336;49.310;8.646;2022-09-30T04:47:08;7.60;;;6.80;;
8596;SDS011;4336;49.310;8.646;2022-09-30T04:49:35;6.37;;;5.67;;
8596;SDS011;4336;49.310;8.646;2022-09-30T04:52:01;7.87;;;6.30;;
8596;SDS011;4336;49.310;8.646;2022-09-30T04:54:27;7.00;;;6.30;;
8596;SDS011;4336;49.310;8.646;2022-09-30T04:56:53;11.10;;;6.93;;
8596;SDS011;4336;49.310;8.646;2022-09-30T04:59:19;7.03;;;6.37;;
8596;SDS011;4336;49.310;8.646;2022-09-30T05:01:45;7.40;;;6.70;;
8596;SDS011;4336;49.310;8.646;2022-09-30T05:04:11;6.80;;;6.20;;
8596;SDS011;4336;49.310;8.646;2022-09-30T05:06:37;7.20;;;6.33;;
8596;SDS011;4336;49.310;8.646;2022-09-30T05:09:05;9.87;;;7.63;;
8596;SDS011;4336;49.310;8.646;2022-09-30T05:11:31;9.53;;;7.00;;
8596;SDS011;4336;49.310;8.646;2022-09-30T05:13:58;7.53;;;6.43;;
8596;SDS011;4336;49.310;8.646;2022-09-30T05:16:24;10.20;;;6.70;;
8596;SDS011;4336;49.310;8.646;2022-09-30T05:18:52;7.17;;;6.57;;
8596;SDS011;4336;49.310;8.646;2022-09-30T05:21:18;7.40;;;6.40;;
8596;SDS011;4336;49.310;8.646;2022-09-30T05:23:44;7.97;;;6.67;;
8596;SDS011;4336;49.310;8.646;2022-09-30T05:26:11;6.47;;;5.87;;
8596;SDS011;4336;49.310;8.646;2022-09-30T05:28:37;6.97;;;6.27;;
8596;SDS011;4336;49.310;8.646;2022-09-30T05:31:03;7.03;;;6.33;;
8596;SDS011;4336;49.310;8.646;2022-09-30T05:33:33;7.13;;;6.47;;
8596;SDS011;4336;49.310;8.646;2022-09-30T05:36:00;7.30;;;6.40;;
8596;SDS011;4336;49.310;8.646;2022-09-30T05:38:27;7.57;;;6.73;;
8596;SDS011;4336;49.310;8.646;2022-09-30T05:40:54;7.07;;;6.10;;
8596;SDS011;4336;49.310;8.646;2022-09-30T05:43:20;6.90;;;5.73;;
8596;SDS011;4336;49.310;8.646;2022-09-30T05:45:53;7.30;;;6.60;;
8596;SDS011;4336;49.310;8.646;2022-09-30T05:48:19;6.33;;;5.70;;
8596;SDS011;4336;49.310;8.646;2022-09-30T05:50:46;6.73;;;6.13;;
8596;SDS011;4336;49.310;8.646;2022-09-30T05:53:17;6.80;;;6.20;;
8596;SDS011;4336;49.310;8.646;2022-09-30T05:55:46;7.07;;;6.37;;
8596;SDS011;4336;49.310;8.646;2022-09-30T05:58:15;10.47;;;5.87;;
8596;SDS011;4336;49.310;8.646;2022-09-30T06:00:43;10.27;;;6.20;;
8596;SDS011;4336;49.310;8.646;2022-09-30T06:03:09;6.30;;;5.70;;
8596;SDS011;4336;49.310;8.646;2022-09-30T06:05:36;8.07;;;6.73;;
8596;SDS011;4336;49.310;8.646;2022-09-30T06:08:02;7.43;;;6.73;;
8596;SDS011;4336;49.310;8.646;2022-09-30T06:10:31;8.90;;;6.77;;
8596;SDS011;4336;49.310;8.646;2022-09-30T06:12:58;7.30;;;6.27;;
8596;SDS011;4336;49.310;8.646;2022-09-30T06:15:25;7.07;;;6.10;;
8596;SDS011;4336;49.310;8.646;2022-09-30T06:17:52;7.60;;;6.90;;
8596;SDS011;4336;49.310;8.646;2022-09-30T06:20:18;7.30;;;6.60;;
8596;SDS011;4336;49.310;8.646;2022-09-30T06:22:44;6.40;;;5.80;;
8596;SDS011;4336;49.310;8.646;2022-09-30T06:25:10;8.40;;;6.33;;
8596;SDS011;4336;49.310;8.646;2022-09-30T06:27:37;7.43;;;6.67;;
8596;SDS011;4336;49.310;8.646;2022-09-30T06:30:04;8.90;;;5.50;;
8596;SDS011;4336;49.310;8.646;2022-09-30T06:32:30;7.97;;;6.50;;
8596;SDS011;4336;49.310;8.646;2022-09-30T06:34:56;7.93;;;6.03;;
8596;SDS011;4336;49.310;8.646;2022-09-30T06:37:22;6.40;;;5.80;;
8596;SDS011;4336;49.310;8.646;2022-09-30T06:39:48;10.20;;;7.03;;
8596;SDS011;4336;49.310;8.646;2022-09-30T06:42:18;6.70;;;6.00;;
8596;SDS011;4336;49.310;8.646;2022-09-30T06:44:44;6.10;;;5.60;;
8596;SDS011;4336;49.310;8.646;2022-09-30T06:47:11;10.33;;;5.73;;
8596;SDS011;4336;49.310;8.646;2022-09-30T06:49:38;9.97;;;5.57;;
8596;SDS011;4336;49.310;8.646;2022-09-30T06:52:04;6.13;;;5.53;;
8596;SDS011;4336;49.310;8.646;2022-09-30T06:54:31;7.23;;;6.23;;
8596;SDS011;4336;49.310;8.646;2022-09-30T06:56:57;6.80;;;6.20;;
8596;SDS011;4336;49.310;8.646;2022-09-30T06:59:23;6.77;;;6.13;;
8596;SDS011;4336;49.310;8.646;2022-09-30T07:01:49;6.70;;;5.83;;
8596;SDS011;4336;49.310;8.646;2022-09-30T07:04:15;10.80;;;6.53;;
8596;SDS011;4336;49.310;8.646;2022-09-30T07:06:42;9.60;;;7.17;;
8596;SDS011;4336;49.310;8.646;2022-09-30T07:09:08;14.10;;;8.07;;
8596;SDS011;4336;49.310;8.646;2022-09-30T07:11:35;16.33;;;7.57;;
8596;SDS011;4336;49.310;8.646;2022-09-30T07:14:01;8.87;;;7.90;;
8596;SDS011;4336;49.310;8.646;2022-09-30T07:16:28;10.77;;;8.57;;
8596;SDS011;4336;49.310;8.646;2022-09-30T07:19:05;14.83;;;9.37;;
8596;SDS011;4336;49.310;8.646;2022-09-30T07:21:33;11.00;;;9.30;;
8596;SDS011;4336;49.310;8.646;2022-09-30T07:23:59;30.07;;;9.80;;
8596;SDS011;4336;49.310;8.646;2022-09-30T07:26:25;11.10;;;9.40;;
8596;SDS011;4336;49.310;8.646;2022-09-30T07:28:52;13.00;;;9.80;;
8596;SDS011;4336;49.310;8.646;2022-09-30T07:31:23;18.60;;;11.57;;
8596;SDS011;4336;49.310;8.646;2022-09-30T07:33:49;16.00;;;10.10;;
8596;SDS011;4336;49.310;8.646;2022-09-30T07:36:16;11.47;;;10.27;;
8596;SDS011;4336;49.310;8.646;2022-09-30T07:38:47;10.43;;;9.23;;
8596;SDS011;4336;49.310;8.646;2022-09-30T07:41:23;11.70;;;9.17;;
8596;SDS011;4336;49.310;8.646;2022-09-30T07:43:52;15.93;;;10.77;;
8596;SDS011;4336;49.310;8.646;2022-09-30T07:46:24;15.53;;;10.07;;
8596;SDS011;4336;49.310;8.646;2022-09-30T07:48:52;16.40;;;10.83;;
8596;SDS011;4336;49.310;8.646;2022-09-30T07:51:25;29.23;;;17.17;;
8596;SDS011;4336;49.310;8.646;2022-09-30T07:53:55;16.17;;;9.63;;
8596;SDS011;4336;49.310;8.646;2022-09-30T07:56:23;15.17;;;10.37;;
8596;SDS011;4336;49.310;8.646;2022-09-30T07:58:56;16.93;;;10.53;;
8596;SDS011;4336;49.310;8.646;2022-09-30T08:01:23;15.13;;;10.17;;
8596;SDS011;4336;49.310;8.646;2022-09-30T08:03:51;15.60;;;10.20;;
8596;SDS011;4336;49.310;8.646;2022-09-30T08:06:18;11.83;;;9.60;;
8596;SDS011;4336;49.310;8.646;2022-09-30T08:08:45;15.47;;;10.73;;
8596;SDS011;4336;49.310;8.646;2022-09-30T08:11:11;11.03;;;9.53;;
8596;SDS011;4336;49.310;8.646;2022-09-30T08:13:39;14.00;;;9.07;;
8596;SDS011;4336;49.310;8.646;2022-09-30T08:16:05;18.40;;;9.73;;
8596;SDS011;4336;49.310;8.646;2022-09-30T08:18:31;13.13;;;9.17;;
8596;SDS011;4336;49.310;8.646;2022-09-30T08:21:04;11.50;;;8.83;;
8596;SDS011;4336;49.310;8.646;2022-09-30T08:23:31;15.10;;;10.07;;
8596;SDS011;4336;49.310;8.646;2022-09-30T08:26:04;12.10;;;9.20;;
8596;SDS011;4336;49.310;8.646;2022-09-30T08:28:34;10.20;;;8.67;;
8596;SDS011;4336;49.310;8.646;2022-09-30T08:33:32;12.60;;;9.20;;
8596;SDS011;4336;49.310;8.646;2022-09-30T08:36:05;12.73;;;9.30;;
8596;SDS011;4336;49.310;8.646;2022-09-30T08:38:35;13.30;;;8.93;;
8596;SDS011;4336;49.310;8.646;2022-09-30T08:44:48;10.73;;;9.23;;
8596;SDS011;4336;49.310;8.646;2022-09-30T08:52:41;14.70;;;10.10;;
8596;SDS011;4336;49.310;8.646;2022-09-30T08:55:09;14.20;;;10.30;;
8596;SDS011;4336;49.310;8.646;2022-09-30T08:57:43;12.83;;;8.93;;
8596;SDS011;4336;49.310;8.646;2022-09-30T09:00:10;9.93;;;8.80;;
8596;SDS011;4336;49.310;8.646;2022-09-30T09:05:04;15.57;;;9.23;;
8596;SDS011;4336;49.310;8.646;2022-09-30T09:07:53;10.60;;;8.97;;
8596;SDS011;4336;49.310;8.646;2022-09-30T09:10:29;11.37;;;9.33;;
8596;SDS011;4336;49.310;8.646;2022-09-30T09:21:06;12.47;;;9.87;;
8596;SDS011;4336;49.310;8.646;2022-09-30T09:23:37;18.63;;;10.13;;
8596;SDS011;4336;49.310;8.646;2022-09-30T09:26:03;12.97;;;9.20;;
8596;SDS011;4336;49.310;8.646;2022-09-30T09:28:34;13.37;;;9.87;;
8596;SDS011;4336;49.310;8.646;2022-09-30T09:31:16;15.37;;;10.07;;
8596;SDS011;4336;49.310;8.646;2022-09-30T09:33:43;12.70;;;8.80;;
8596;SDS011;4336;49.310;8.646;2022-09-30T09:36:20;10.93;;;8.60;;
8596;SDS011;4336;49.310;8.646;2022-09-30T09:41:34;10.53;;;8.20;;
8596;SDS011;4336;49.310;8.646;2022-09-30T09:54:22;10.53;;;7.70;;
8596;SDS011;4336;49.310;8.646;2022-09-30T09:56:49;14.40;;;8.83;;
8596;SDS011;4336;49.310;8.646;2022-09-30T09:59:17;11.07;;;7.47;;
8596;SDS011;4336;49.310;8.646;2022-09-30T10:01:44;10.47;;;7.50;;
8596;SDS011;4336;49.310;8.646;2022-09-30T10:12:16;8.93;;;7.13;;
8596;SDS011;4336;49.310;8.646;2022-09-30T10:14:54;7.90;;;7.10;;
8596;SDS011;4336;49.310;8.646;2022-09-30T10:17:27;8.63;;;7.47;;
8596;SDS011;4336;49.310;8.646;2022-09-30T10:20:05;7.53;;;6.83;;
8596;SDS011;4336;49.310;8.646;2022-09-30T10:22:58;8.53;;;7.80;;
8596;SDS011;4336;49.310;8.646;2022-09-30T10:25:26;9.53;;;8.50;;
8596;SDS011;4336;49.310;8.646;2022-09-30T10:27:59;8.10;;;7.40;;
8596;SDS011;4336;49.310;8.646;2022-09-30T10:32:58;7.33;;;6.60;;
8596;SDS011;4336;49.310;8.646;2022-09-30T10:35:27;13.07;;;8.33;;
8596;SDS011;4336;49.310;8.646;2022-09-30T10:37:53;11.03;;;9.93;;
8596;SDS011;4336;49.310;8.646;2022-09-30T10:40:19;7.47;;;6.63;;
8596;SDS011;4336;49.310;8.646;2022-09-30T10:42:47;7.63;;;6.93;;
8596;SDS011;4336;49.310;8.646;2022-09-30T10:45:20;9.10;;;8.07;;
8596;SDS011;4336;49.310;8.646;2022-09-30T10:47:49;9.03;;;8.03;;
8596;SDS011;4336;49.310;8.646;2022-09-30T10:50:24;7.27;;;6.57;;
8596;SDS011;4336;49.310;8.646;2022-09-30T10:52:59;9.43;;;6.77;;
8596;SDS011;4336;49.310;8.646;2022-09-30T10:55:34;7.17;;;6.50;;
8596;SDS011;4336;49.310;8.646;2022-09-30T11:00:58;7.57;;;6.87;;
8596;SDS011;4336;49.310;8.646;2022-09-30T11:03:36;9.50;;;8.60;;
8596;SDS011;4336;49.310;8.646;2022-09-30T11:06:08;9.33;;;8.40;;
8596;SDS011;4336;49.310;8.646;2022-09-30T11:08:42;8.83;;;7.23;;
8596;SDS011;4336;49.310;8.646;2022-09-30T11:11:26;9.73;;;8.73;;
8596;SDS011;4336;49.310;8.646;2022-09-30T11:19:20;8.18;;;7.38;;
8596;SDS011;4336;49.310;8.646;2022-09-30T11:22:20;9.47;;;8.57;;
8596;SDS011;4336;49.310;8.646;2022-09-30T11:24:56;8.88;;;8.02;;
8596;SDS011;4336;49.310;8.646;2022-09-30T11:30:06;7.25;;;6.55;;
8596;SDS011;4336;49.310;8.646;2022-09-30T11:41:16;6.25;;;5.63;;
8596;SDS011;4336;49.310;8.646;2022-09-30T11:44:03;7.00;;;6.30;;
8596;SDS011;4336;49.310;8.646;2022-09-30T11:58:03;6.30;;;5.65;;
8596;SDS011;4336;49.310;8.646;2022-09-30T12:00:34;6.55;;;5.90;;
8596;SDS011;4336;49.310;8.646;2022-09-30T12:03:06;9.07;;;6.28;;
8596;SDS011;4336;49.310;8.646;2022-09-30T12:05:38;11.75;;;9.32;;
8596;SDS011;4336;49.310;8.646;2022-09-30T12:08:16;8.77;;;8.00;;
8596;SDS011;4336;49.310;8.646;2022-09-30T12:11:10;7.18;;;6.45;;
8596;SDS011;4336;49.310;8.646;2022-09-30T12:14:02;9.35;;;8.45;;
8596;SDS011;4336;49.310;8.646;2022-09-30T12:16:31;7.85;;;7.15;;
8596;SDS011;4336;49.310;8.646;2022-09-30T12:19:01;7.07;;;6.25;;
8596;SDS011;4336;49.310;8.646;2022-09-30T12:21:48;10.63;;;7.70;;
8596;SDS011;4336;49.310;8.646;2022-09-30T12:27:15;7.63;;;6.88;;
8596;SDS011;4336;49.310;8.646;2022-09-30T12:38:27;12.02;;;7.85;;
8596;SDS011;4336;49.310;8.646;2022-09-30T12:49:14;6.68;;;6.07;;
8596;SDS011;4336;49.310;8.646;2022-09-30T12:51:44;7.53;;;6.82;;
8596;SDS011;4336;49.310;8.646;2022-09-30T12:56:45;6.57;;;5.97;;
8596;SDS011;4336;49.310;8.646;2022-09-30T12:59:13;8.95;;;6.72;;
8596;SDS011;4336;49.310;8.646;2022-09-30T13:01:44;8.40;;;7.43;;
8596;SDS011;4336;49.310;8.646;2022-09-30T13:04:17;7.73;;;6.73;;
8596;SDS011;4336;49.310;8.646;2022-09-30T13:12:22;7.93;;;7.13;;
8596;SDS011;4336;49.310;8.646;2022-09-30T13:15:22;5.60;;;5.10;;
8596;SDS011;4336;49.310;8.646;2022-09-30T13:17:54;8.03;;;7.33;;
8596;SDS011;4336;49.310;8.646;2022-09-30T13:26:04;5.47;;;5.00;;
8596;SDS011;4336;49.310;8.646;2022-09-30T13:28:52;9.97;;;8.83;;
8596;SDS011;4336;49.310;8.646;2022-09-30T13:31:20;6.90;;;6.30;;
8596;SDS011;4336;49.310;8.646;2022-09-30T13:36:55;6.90;;;6.27;;
8596;SDS011;4336;49.310;8.646;2022-09-30T13:42:21;7.90;;;7.13;;
8596;SDS011;4336;49.310;8.646;2022-09-30T13:47:42;6.30;;;5.70;;
8596;SDS011;4336;49.310;8.646;2022-09-30T13:53:14;8.57;;;5.73;;
8596;SDS011;4336;49.310;8.646;2022-09-30T13:55:44;9.53;;;8.50;;
8596;SDS011;4336;49.310;8.646;2022-09-30T14:12:25;7.63;;;6.87;;
8596;SDS011;4336;49.310;8.646;2022-09-30T14:20:52;7.63;;;5.17;;
8596;SDS011;4336;49.310;8.646;2022-09-30T14:23:42;7.77;;;5.50;;
8596;SDS011;4336;49.310;8.646;2022-09-30T14:28:55;6.10;;;5.50;;
8596;SDS011;4336;49.310;8.646;2022-09-30T14:31:22;6.00;;;5.50;;
8596;SDS011;4336;49.310;8.646;2022-09-30T14:33:49;6.63;;;5.80;;
8596;SDS011;4336;49.310;8.646;2022-09-30T14:36:17;7.13;;;6.00;;
8596;SDS011;4336;49.310;8.646;2022-09-30T14:39:02;6.53;;;5.97;;
8596;SDS011;4336;49.310;8.646;2022-09-30T14:41:28;6.33;;;5.73;;
8596;SDS011;4336;49.310;8.646;2022-09-30T14:43:56;6.17;;;5.67;;
8596;SDS011;4336;49.310;8.646;2022-09-30T14:46:31;5.73;;;5.23;;
8596;SDS011;4336;49.310;8.646;2022-09-30T14:48:59;5.80;;;5.30;;
8596;SDS011;4336;49.310;8.646;2022-09-30T14:51:37;5.57;;;5.07;;
8596;SDS011;4336;49.310;8.646;2022-09-30T14:54:18;7.47;;;6.67;;
8596;SDS011;4336;49.310;8.646;2022-09-30T14:56:44;6.57;;;5.93;;
8596;SDS011;4336;49.310;8.646;2022-09-30T14:59:32;8.83;;;7.17;;
8596;SDS011;4336;49.310;8.646;2022-09-30T15:02:01;7.50;;;6.80;;
8596;SDS011;4336;49.310;8.646;2022-09-30T15:04:29;8.20;;;7.07;;
8596;SDS011;4336;49.310;8.646;2022-09-30T15:06:57;7.70;;;7.00;;
8596;SDS011;4336;49.310;8.646;2022-09-30T15:09:31;6.10;;;4.63;;
8596;SDS011;4336;49.310;8.646;2022-09-30T15:12:32;7.03;;;6.27;;
8596;SDS011;4336;49.310;8.646;2022-09-30T15:14:57;3.97;;;3.67;;
8596;SDS011;4336;49.310;8.646;2022-09-30T15:17:36;5.10;;;4.70;;
8596;SDS011;4336;49.310;8.646;2022-09-30T15:20:12;7.43;;;6.70;;
8596;SDS011;4336;49.310;8.646;2022-09-30T15:22:48;6.83;;;5.77;;
8596;SDS011;4336;49.310;8.646;2022-09-30T15:25:16;6.30;;;5.70;;
8596;SDS011;4336;49.310;8.646;2022-09-30T15:27:43;5.60;;;5.20;;
8596;SDS011;4336;49.310;8.646;2022-09-30T15:32:42;9.83;;;3.97;;
8596;SDS011;4336;49.310;8.646;2022-09-30T15:35:14;3.93;;;3.63;;
8596;SDS011;4336;49.310;8.646;2022-09-30T15:37:45;21.60;;;5.27;;
8596;SDS011;4336;49.310;8.646;2022-09-30T15:40:12;4.70;;;4.30;;
8596;SDS011;4336;49.310;8.646;2022-09-30T15:42:59;7.27;;;5.37;;
8596;SDS011;4336;49.310;8.646;2022-09-30T15:45:31;7.13;;;6.43;;
8596;SDS011;4336;49.310;8.646;2022-09-30T15:47:59;4.67;;;4.27;;
8596;SDS011;4336;49.310;8.646;2022-09-30T15:50:42;4.90;;;4.50;;
8596;SDS011;4336;49.310;8.646;2022-09-30T15:55:53;5.37;;;4.90;;
8596;SDS011;4336;49.310;8.646;2022-09-30T16:06:21;12.00;;;7.23;;
8596;SDS011;4336;49.310;8.646;2022-09-30T16:09:25;6.03;;;4.67;;
8596;SDS011;4336;49.310;8.646;2022-09-30T16:12:01;5.47;;;4.57;;
8596;SDS011;4336;49.310;8.646;2022-09-30T16:14:42;4.73;;;4.33;;
8596;SDS011;4336;49.310;8.646;2022-09-30T16:17:29;5.83;;;5.33;;
8596;SDS011;4336;49.310;8.646;2022-09-30T16:20:00;4.30;;;3.90;;
8596;SDS011;4336;49.310;8.646;2022-09-30T16:25:24;5.07;;;4.67;;
8596;SDS011;4336;49.310;8.646;2022-09-30T16:27:57;5.63;;;5.23;;
8596;SDS011;4336;49.310;8.646;2022-09-30T16:30:24;9.00;;;4.13;;
8596;SDS011;4336;49.310;8.646;2022-09-30T16:32:51;5.73;;;5.13;;
8596;SDS011;4336;49.310;8.646;2022-09-30T16:35:19;6.10;;;5.50;;
8596;SDS011;4336;49.310;8.646;2022-09-30T16:37:46;5.20;;;4.70;;
8596;SDS011;4336;49.310;8.646;2022-09-30T16:40:17;5.30;;;4.80;;
8596;SDS011;4336;49.310;8.646;2022-09-30T16:42:43;5.20;;;4.67;;
8596;SDS011;4336;49.310;8.646;2022-09-30T16:45:10;5.00;;;4.33;;
8596;SDS011;4336;49.310;8.646;2022-09-30T16:47:42;5.17;;;4.70;;
8596;SDS011;4336;49.310;8.646;2022-09-30T16:50:11;5.30;;;4.80;;
8596;SDS011;4336;49.310;8.646;2022-09-30T16:52:40;5.50;;;5.00;;
8596;SDS011;4336;49.310;8.646;2022-09-30T16:55:06;6.03;;;5.43;;
8596;SDS011;4336;49.310;8.646;2022-09-30T16:57:32;7.17;;;6.10;;
8596;SDS011;4336;49.310;8.646;2022-09-30T16:59:58;6.87;;;6.23;;
8596;SDS011;4336;49.310;8.646;2022-09-30T17:02:24;10.67;;;7.07;;
8596;SDS011;4336;49.310;8.646;2022-09-30T17:04:51;25.60;;;12.47;;
8596;SDS011;4336;49.310;8.646;2022-09-30T17:07:17;9.33;;;8.00;;
8596;SDS011;4336;49.310;8.646;2022-09-30T17:09:43;5.93;;;5.30;;
8596;SDS011;4336;49.310;8.646;2022-09-30T17:12:10;5.90;;;5.30;;
8596;SDS011;4336;49.310;8.646;2022-09-30T17:14:36;7.20;;;5.77;;
8596;SDS011;4336;49.310;8.646;2022-09-30T17:17:03;7.40;;;5.77;;
8596;SDS011;4336;49.310;8.646;2022-09-30T17:19:29;7.03;;;6.23;;
8596;SDS011;4336;49.310;8.646;2022-09-30T17:21:59;6.07;;;5.47;;
8596;SDS011;4336;49.310;8.646;2022-09-30T17:24:26;6.90;;;6.20;;
8596;SDS011;4336;49.310;8.646;2022-09-30T17:26:52;7.80;;;6.63;;
8596;SDS011;4336;49.310;8.646;2022-09-30T17:29:18;7.23;;;6.50;;
8596;SDS011;4336;49.310;8.646;2022-09-30T17:31:45;7.30;;;5.73;;
8596;SDS011;4336;49.310;8.646;2022-09-30T17:34:11;8.20;;;6.13;;
8596;SDS011;4336;49.310;8.646;2022-09-30T17:36:37;7.13;;;6.33;;
8596;SDS011;4336;49.310;8.646;2022-09-30T17:39:03;6.17;;;5.53;;
8596;SDS011;4336;49.310;8.646;2022-09-30T17:41:31;6.40;;;5.63;;
8596;SDS011;4336;49.310;8.646;2022-09-30T17:44:16;6.37;;;5.77;;
8596;SDS011;4336;49.310;8.646;2022-09-30T17:46:43;7.47;;;5.70;;
8596;SDS011;4336;49.310;8.646;2022-09-30T17:49:10;9.53;;;6.33;;
8596;SDS011;4336;49.310;8.646;2022-09-30T17:51:37;7.43;;;6.00;;
8596;SDS011;4336;49.310;8.646;2022-09-30T17:54:04;7.87;;;6.60;;
8596;SDS011;4336;49.310;8.646;2022-09-30T17:56:31;7.40;;;6.70;;
8596;SDS011;4336;49.310;8.646;2022-09-30T17:58:57;7.97;;;6.10;;
8596;SDS011;4336;49.310;8.646;2022-09-30T18:01:26;7.53;;;5.70;;
8596;SDS011;4336;49.310;8.646;2022-09-30T18:03:56;8.77;;;6.07;;
8596;SDS011;4336;49.310;8.646;2022-09-30T18:06:22;7.60;;;6.50;;
8596;SDS011;4336;49.310;8.646;2022-09-30T18:08:49;7.23;;;6.40;;
8596;SDS011;4336;49.310;8.646;2022-09-30T18:11:22;8.63;;;6.37;;
8596;SDS011;4336;49.310;8.646;2022-09-30T18:13:56;7.70;;;7.00;;
8596;SDS011;4336;49.310;8.646;2022-09-30T18:16:24;8.07;;;6.17;;
8596;SDS011;4336;49.310;8.646;2022-09-30T18:18:54;9.47;;;7.60;;
8596;SDS011;4336;49.310;8.646;2022-09-30T18:21:20;9.00;;;7.17;;
8596;SDS011;4336;49.310;8.646;2022-09-30T18:23:48;8.80;;;7.90;;
8596;SDS011;4336;49.310;8.646;2022-09-30T18:26:15;12.90;;;7.23;;
8596;SDS011;4336;49.310;8.646;2022-09-30T18:28:41;10.10;;;7.83;;
8596;SDS011;4336;49.310;8.646;2022-09-30T18:31:08;10.23;;;8.73;;
8596;SDS011;4336;49.310;8.646;2022-09-30T18:33:35;9.33;;;8.43;;
8596;SDS011;4336;49.310;8.646;2022-09-30T18:36:02;14.07;;;8.40;;
8596;SDS011;4336;49.310;8.646;2022-09-30T18:38:32;11.27;;;7.70;;
8596;SDS011;4336;49.310;8.646;2022-09-30T18:40:58;10.47;;;8.73;;
8596;SDS011;4336;49.310;8.646;2022-09-30T18:43:25;12.20;;;9.43;;
8596;SDS011;4336;49.310;8.646;2022-09-30T18:45:52;12.57;;;9.53;;
8596;SDS011;4336;49.310;8.646;2022-09-30T18:48:18;12.43;;;8.47;;
8596;SDS011;4336;49.310;8.646;2022-09-30T18:50:44;10.97;;;8.67;;
8596;SDS011;4336;49.310;8.646;2022-09-30T18:53:13;11.53;;;8.20;;
8596;SDS011;4336;49.310;8.646;2022-09-30T18:55:39;10.00;;;8.43;;